createdAt,value
2023-02-19T00:00:48.130Z,0
2023-02-19T00:01:48.323Z,0
2023-02-19T00:02:48.509Z,0
2023-02-19T00:03:48.666Z,0
2023-02-19T00:04:48.971Z,0
2023-02-19T00:05:49.220Z,0
2023-02-19T00:06:49.369Z,0
2023-02-19T00:07:49.558Z,0
2023-02-19T00:08:49.704Z,0
2023-02-19T00:09:49.861Z,0
2023-02-19T00:10:50.014Z,0
2023-02-19T00:11:50.174Z,0
2023-02-19T00:12:50.435Z,0
2023-02-19T00:13:50.583Z,0
2023-02-19T00:14:50.740Z,0
2023-02-19T00:15:50.971Z,0
2023-02-19T00:16:51.320Z,0
2023-02-19T00:17:51.541Z,0
2023-02-19T00:18:51.697Z,0
2023-02-19T00:19:51.845Z,0
2023-02-19T00:20:52.008Z,0
2023-02-19T00:21:52.245Z,0
2023-02-19T00:22:52.445Z,0
2023-02-19T00:23:52.594Z,0
2023-02-19T00:24:52.755Z,0
2023-02-19T00:25:52.930Z,0
2023-02-19T00:26:53.106Z,0
2023-02-19T00:27:53.270Z,0
2023-02-19T00:28:53.412Z,0
2023-02-19T00:29:53.574Z,0
2023-02-19T00:30:53.762Z,0
2023-02-19T00:31:54.059Z,0
2023-02-19T00:32:54.761Z,0
2023-02-19T00:33:54.916Z,0
2023-02-19T00:34:55.087Z,0
2023-02-19T00:35:55.234Z,0
2023-02-19T00:36:55.380Z,0
2023-02-19T00:37:55.541Z,0
2023-02-19T00:38:55.705Z,0
2023-02-19T00:39:55.899Z,0
2023-02-19T00:40:56.044Z,0
2023-02-19T00:41:56.178Z,0
2023-02-19T00:42:56.332Z,0
2023-02-19T00:43:56.478Z,0
2023-02-19T00:44:56.644Z,0
2023-02-19T00:45:56.816Z,0
2023-02-19T00:46:57.063Z,0
2023-02-19T00:47:57.228Z,0
2023-02-19T00:48:57.385Z,0
2023-02-19T00:49:57.548Z,0
2023-02-19T00:50:57.701Z,0
2023-02-19T00:51:57.852Z,0
2023-02-19T00:52:58.004Z,0
2023-02-19T00:53:58.154Z,0
2023-02-19T00:54:58.316Z,0
2023-02-19T00:55:58.464Z,0
2023-02-19T00:56:58.612Z,0
2023-02-19T00:57:58.808Z,0
2023-02-19T00:58:58.954Z,0
2023-02-19T00:59:59.121Z,0
2023-02-19T01:00:59.279Z,0
2023-02-19T01:01:59.470Z,0
2023-02-19T01:02:59.716Z,0
2023-02-19T01:03:59.873Z,0
2023-02-19T01:05:00.025Z,0
2023-02-19T01:06:00.482Z,0
2023-02-19T01:07:00.638Z,0
2023-02-19T01:08:00.796Z,0
2023-02-19T01:09:00.941Z,0
2023-02-19T01:10:01.105Z,0
2023-02-19T01:11:01.273Z,0
2023-02-19T01:12:01.434Z,0
2023-02-19T01:13:01.599Z,0
2023-02-19T01:14:01.751Z,0
2023-02-19T01:15:01.909Z,0
2023-02-19T01:16:02.125Z,0
2023-02-19T01:17:02.357Z,0
2023-02-19T01:18:02.504Z,0
2023-02-19T01:19:02.647Z,0
2023-02-19T01:20:02.841Z,0
2023-02-19T01:21:02.987Z,0
2023-02-19T01:22:03.136Z,0
2023-02-19T01:23:03.294Z,0
2023-02-19T01:24:03.460Z,0
2023-02-19T01:25:03.610Z,0
2023-02-19T01:26:03.808Z,0
2023-02-19T01:27:03.952Z,0
2023-02-19T01:28:04.111Z,0
2023-02-19T01:29:04.260Z,0
2023-02-19T01:30:04.425Z,0
2023-02-19T01:31:04.849Z,0
2023-02-19T01:32:05.364Z,0
2023-02-19T01:33:06.081Z,0
2023-02-19T01:34:06.239Z,0
2023-02-19T01:35:06.391Z,0
2023-02-19T01:36:06.552Z,0
2023-02-19T01:37:06.724Z,0
2023-02-19T01:38:06.878Z,0
2023-02-19T01:39:07.033Z,0
2023-02-19T01:40:07.224Z,0
2023-02-19T01:41:07.493Z,0
2023-02-19T01:42:07.972Z,0
2023-02-19T01:43:08.124Z,0
2023-02-19T01:44:08.309Z,0
2023-02-19T01:45:08.458Z,0
2023-02-19T01:46:08.622Z,0
2023-02-19T01:47:08.774Z,0
2023-02-19T01:48:08.927Z,0
2023-02-19T01:49:09.096Z,0
2023-02-19T01:50:09.306Z,0
2023-02-19T01:51:09.825Z,0
2023-02-19T01:52:10.612Z,0
2023-02-19T01:53:10.776Z,0
2023-02-19T01:54:10.928Z,0
2023-02-19T01:55:11.088Z,0
2023-02-19T01:56:11.256Z,0
2023-02-19T01:57:11.447Z,0
2023-02-19T01:58:11.667Z,0
2023-02-19T01:59:11.838Z,0
2023-02-19T02:00:11.995Z,0
2023-02-19T02:01:12.474Z,0
2023-02-19T02:02:13.792Z,0
2023-02-19T02:03:14.145Z,0
2023-02-19T02:04:14.305Z,0
2023-02-19T02:05:14.480Z,0
2023-02-19T02:06:14.630Z,0
2023-02-19T02:07:14.796Z,0
2023-02-19T02:08:14.945Z,0
2023-02-19T02:09:15.101Z,0
2023-02-19T02:10:15.261Z,0
2023-02-19T02:11:15.436Z,0
2023-02-19T02:12:15.594Z,0
2023-02-19T02:13:15.768Z,0
2023-02-19T02:14:15.925Z,0
2023-02-19T02:15:16.074Z,0
2023-02-19T02:16:16.253Z,0
2023-02-19T02:17:16.547Z,0
2023-02-19T02:18:16.715Z,0
2023-02-19T02:19:16.869Z,0
2023-02-19T02:20:17.018Z,0
2023-02-19T02:21:17.185Z,0
2023-02-19T02:22:17.388Z,0
2023-02-19T02:23:17.543Z,0
2023-02-19T02:24:17.719Z,0
2023-02-19T02:25:17.883Z,0
2023-02-19T02:26:18.054Z,0
2023-02-19T02:27:18.714Z,0
2023-02-19T02:28:18.872Z,0
2023-02-19T02:29:19.022Z,0
2023-02-19T02:30:19.200Z,0
2023-02-19T02:31:19.577Z,0
2023-02-19T02:32:20.115Z,0
2023-02-19T02:33:20.431Z,0
2023-02-19T02:34:20.604Z,0
2023-02-19T02:35:20.769Z,0
2023-02-19T02:36:20.923Z,0
2023-02-19T02:37:21.082Z,0
2023-02-19T02:38:21.230Z,0
2023-02-19T02:39:21.396Z,0
2023-02-19T02:40:21.579Z,0
2023-02-19T02:41:21.742Z,0
2023-02-19T02:42:21.915Z,0
2023-02-19T02:43:22.076Z,0
2023-02-19T02:44:22.251Z,0
2023-02-19T02:45:22.516Z,0
2023-02-19T02:46:22.774Z,0
2023-02-19T02:47:22.946Z,0
2023-02-19T02:48:23.102Z,0
2023-02-19T02:49:23.264Z,0
2023-02-19T02:50:23.402Z,0
2023-02-19T02:51:23.550Z,0
2023-02-19T02:52:23.709Z,0
2023-02-19T02:53:23.855Z,0
2023-02-19T02:54:24.017Z,0
2023-02-19T02:55:24.176Z,0
2023-02-19T02:56:24.337Z,0
2023-02-19T02:57:24.499Z,0
2023-02-19T02:58:24.643Z,0
2023-02-19T02:59:24.800Z,0
2023-02-19T03:00:24.954Z,0
2023-02-19T03:01:25.140Z,0
2023-02-19T03:02:25.635Z,0
2023-02-19T03:03:25.912Z,0
2023-02-19T03:04:26.074Z,0
2023-02-19T03:05:26.234Z,0
2023-02-19T03:06:26.388Z,0
2023-02-19T03:07:26.541Z,0
2023-02-19T03:08:26.684Z,0
2023-02-19T03:09:26.834Z,0
2023-02-19T03:10:26.991Z,0
2023-02-19T03:11:27.201Z,0
2023-02-19T03:12:27.365Z,0
2023-02-19T03:13:27.520Z,0
2023-02-19T03:14:27.683Z,0
2023-02-19T03:15:27.834Z,0
2023-02-19T03:16:28.002Z,0
2023-02-19T03:17:28.250Z,0
2023-02-19T03:18:28.391Z,0
2023-02-19T03:19:28.537Z,0
2023-02-19T03:20:28.693Z,0
2023-02-19T03:21:28.849Z,0
2023-02-19T03:22:29.025Z,0
2023-02-19T03:23:29.303Z,0
2023-02-19T03:24:29.473Z,0
2023-02-19T03:25:29.720Z,0
2023-02-19T03:26:29.865Z,0
2023-02-19T03:27:30.011Z,0
2023-02-19T03:28:30.177Z,0
2023-02-19T03:29:30.338Z,0
2023-02-19T03:30:30.540Z,0
2023-02-19T03:31:30.960Z,0
2023-02-19T03:32:31.398Z,0
2023-02-19T03:33:31.570Z,0
2023-02-19T03:34:31.715Z,0
2023-02-19T03:35:31.892Z,0
2023-02-19T03:36:32.079Z,0
2023-02-19T03:37:32.309Z,0
2023-02-19T03:38:32.454Z,0
2023-02-19T03:39:32.605Z,0
2023-02-19T03:40:32.762Z,0
2023-02-19T03:41:32.929Z,0
2023-02-19T03:42:33.083Z,0
2023-02-19T03:43:33.938Z,0
2023-02-19T03:44:34.881Z,0
2023-02-19T03:45:35.069Z,0
2023-02-19T03:46:35.336Z,0
2023-02-19T03:47:35.487Z,0
2023-02-19T03:48:35.641Z,0
2023-02-19T03:49:35.877Z,0
2023-02-19T03:50:36.024Z,0
2023-02-19T03:51:36.182Z,0
2023-02-19T03:52:36.329Z,0
2023-02-19T03:53:36.472Z,0
2023-02-19T03:54:36.624Z,0
2023-02-19T03:55:36.786Z,0
2023-02-19T03:56:36.937Z,0
2023-02-19T03:57:37.098Z,0
2023-02-19T03:58:37.269Z,0
2023-02-19T03:59:37.447Z,0
2023-02-19T04:00:37.611Z,0
2023-02-19T04:01:37.770Z,0
2023-02-19T04:02:37.932Z,0
2023-02-19T04:03:38.082Z,0
2023-02-19T04:04:38.321Z,0
2023-02-19T04:05:38.607Z,0
2023-02-19T04:06:38.763Z,0
2023-02-19T04:07:38.935Z,0
2023-02-19T04:08:39.122Z,0
2023-02-19T04:09:39.274Z,0
2023-02-19T04:10:39.436Z,0
2023-02-19T04:11:39.592Z,0
2023-02-19T04:12:39.741Z,0
2023-02-19T04:13:39.909Z,0
2023-02-19T04:14:40.057Z,0
2023-02-19T04:15:40.217Z,0
2023-02-19T04:16:40.476Z,0
2023-02-19T04:17:40.818Z,0
2023-02-19T04:18:40.964Z,0
2023-02-19T04:19:41.162Z,0
2023-02-19T04:20:41.317Z,0
2023-02-19T04:21:41.467Z,0
2023-02-19T04:22:41.628Z,0
2023-02-19T04:23:41.794Z,0
2023-02-19T04:24:41.978Z,0
2023-02-19T04:25:42.135Z,0
2023-02-19T04:26:42.296Z,0
2023-02-19T04:27:42.469Z,0
2023-02-19T04:28:42.609Z,0
2023-02-19T04:29:42.764Z,0
2023-02-19T04:30:43.164Z,0
2023-02-19T04:31:43.855Z,0
2023-02-19T04:32:44.162Z,0
2023-02-19T04:33:44.316Z,0
2023-02-19T04:34:44.486Z,0
2023-02-19T04:35:44.687Z,0
2023-02-19T04:36:44.837Z,0
2023-02-19T04:37:45.006Z,0
2023-02-19T04:38:45.168Z,0
2023-02-19T04:39:45.322Z,0
2023-02-19T04:40:45.467Z,0
2023-02-19T04:41:45.605Z,0
2023-02-19T04:42:45.792Z,0
2023-02-19T04:43:45.937Z,0
2023-02-19T04:44:46.080Z,0
2023-02-19T04:45:46.227Z,0
2023-02-19T04:46:46.406Z,0
2023-02-19T04:47:46.557Z,0
2023-02-19T04:48:46.703Z,0
2023-02-19T04:49:46.862Z,0
2023-02-19T04:50:47.016Z,0
2023-02-19T04:51:47.258Z,0
2023-02-19T04:52:47.429Z,0
2023-02-19T04:53:47.596Z,0
2023-02-19T04:54:47.944Z,0
2023-02-19T04:55:48.103Z,0
2023-02-19T04:56:48.294Z,0
2023-02-19T04:57:48.444Z,0
2023-02-19T04:58:48.598Z,0
2023-02-19T04:59:48.745Z,0
2023-02-19T05:00:48.913Z,0
2023-02-19T05:01:49.078Z,0
2023-02-19T05:02:49.369Z,0
2023-02-19T05:03:49.525Z,0
2023-02-19T05:04:49.703Z,0
2023-02-19T05:05:49.855Z,0
2023-02-19T05:06:50.008Z,0
2023-02-19T05:07:50.175Z,0
2023-02-19T05:08:50.323Z,0
2023-02-19T05:09:50.529Z,0
2023-02-19T05:10:50.680Z,0
2023-02-19T05:11:50.825Z,0
2023-02-19T05:12:50.985Z,0
2023-02-19T05:13:51.131Z,0
2023-02-19T05:14:51.274Z,0
2023-02-19T05:15:51.467Z,0
2023-02-19T05:16:51.826Z,0
2023-02-19T05:17:51.972Z,0
2023-02-19T05:18:52.120Z,0
2023-02-19T05:19:52.280Z,0
2023-02-19T05:20:52.434Z,0
2023-02-19T05:21:52.588Z,0
2023-02-19T05:22:52.735Z,0
2023-02-19T05:23:52.895Z,0
2023-02-19T05:24:53.084Z,0
2023-02-19T05:25:53.247Z,0
2023-02-19T05:26:53.396Z,0
2023-02-19T05:27:53.551Z,0
2023-02-19T05:28:53.716Z,0
2023-02-19T05:29:53.872Z,0
2023-02-19T05:30:54.057Z,0
2023-02-19T05:31:54.513Z,0
2023-02-19T05:32:54.968Z,0
2023-02-19T05:33:55.132Z,0
2023-02-19T05:34:55.283Z,0
2023-02-19T05:35:55.440Z,0
2023-02-19T05:36:55.637Z,0
2023-02-19T05:37:55.793Z,0
2023-02-19T05:38:55.956Z,0
2023-02-19T05:39:56.119Z,0
2023-02-19T05:40:56.309Z,0
2023-02-19T05:41:56.461Z,0
2023-02-19T05:42:56.631Z,0
2023-02-19T05:43:56.796Z,0
2023-02-19T05:44:56.977Z,0
2023-02-19T05:45:57.128Z,0
2023-02-19T05:46:57.276Z,0
2023-02-19T05:47:57.419Z,0
2023-02-19T05:48:57.584Z,0
2023-02-19T05:49:57.749Z,0
2023-02-19T05:50:57.913Z,0
2023-02-19T05:51:58.060Z,0
2023-02-19T05:52:58.221Z,0
2023-02-19T05:53:58.368Z,0
2023-02-19T05:54:58.557Z,0
2023-02-19T05:55:58.707Z,0
2023-02-19T05:56:58.877Z,0
2023-02-19T05:57:59.090Z,0
2023-02-19T05:58:59.248Z,0
2023-02-19T05:59:59.401Z,0
2023-02-19T06:00:59.556Z,0
2023-02-19T06:02:00.207Z,0
2023-02-19T06:03:00.382Z,0
2023-02-19T06:04:00.848Z,0
2023-02-19T06:05:01.123Z,0
2023-02-19T06:06:01.302Z,0
2023-02-19T06:07:01.452Z,0
2023-02-19T06:08:01.614Z,0
2023-02-19T06:09:01.768Z,0
2023-02-19T06:10:01.946Z,1
2023-02-19T06:11:02.086Z,2
2023-02-19T06:12:02.233Z,3
2023-02-19T06:13:02.392Z,5
2023-02-19T06:14:02.541Z,6
2023-02-19T06:15:02.729Z,7
2023-02-19T06:16:02.960Z,8
2023-02-19T06:17:03.215Z,10
2023-02-19T06:18:03.354Z,11
2023-02-19T06:19:03.529Z,13
2023-02-19T06:20:03.701Z,15
2023-02-19T06:21:03.897Z,17
2023-02-19T06:22:04.042Z,19
2023-02-19T06:23:04.192Z,21
2023-02-19T06:24:04.341Z,21
2023-02-19T06:25:04.509Z,24
2023-02-19T06:26:04.675Z,27
2023-02-19T06:27:04.823Z,33
2023-02-19T06:28:04.977Z,37
2023-02-19T06:29:05.147Z,41
2023-02-19T06:30:05.369Z,46
2023-02-19T06:31:05.626Z,46
2023-02-19T06:32:05.985Z,51
2023-02-19T06:33:06.386Z,51
2023-02-19T06:34:06.544Z,58
2023-02-19T06:35:06.732Z,64
2023-02-19T06:36:06.924Z,64
2023-02-19T06:37:07.080Z,71
2023-02-19T06:38:07.236Z,71
2023-02-19T06:39:07.419Z,79
2023-02-19T06:40:07.581Z,79
2023-02-19T06:41:07.944Z,86.96
2023-02-19T06:42:08.779Z,86.96
2023-02-19T06:43:08.941Z,96
2023-02-19T06:44:09.101Z,110
2023-02-19T06:45:09.276Z,130
2023-02-19T06:46:09.447Z,150
2023-02-19T06:47:09.599Z,150
2023-02-19T06:48:09.753Z,169.92
2023-02-19T06:49:09.910Z,169.92
2023-02-19T06:50:10.070Z,169.92
2023-02-19T06:51:10.411Z,189.92
2023-02-19T06:52:11.194Z,209.92
2023-02-19T06:53:11.349Z,209.92
2023-02-19T06:54:11.513Z,209.92
2023-02-19T06:55:11.661Z,209.92
2023-02-19T06:56:11.820Z,209.92
2023-02-19T06:57:11.976Z,209.92
2023-02-19T06:58:12.129Z,240
2023-02-19T06:59:12.288Z,240
2023-02-19T07:00:12.457Z,269.92
2023-02-19T07:01:12.922Z,300
2023-02-19T07:02:13.986Z,300
2023-02-19T07:03:14.154Z,329.92
2023-02-19T07:04:14.343Z,329.92
2023-02-19T07:05:14.569Z,369.92
2023-02-19T07:06:14.720Z,369.92
2023-02-19T07:07:14.863Z,369.92
2023-02-19T07:08:15.021Z,369.92
2023-02-19T07:09:15.171Z,369.92
2023-02-19T07:10:15.312Z,369.92
2023-02-19T07:11:15.460Z,409.92
2023-02-19T07:12:15.611Z,409.92
2023-02-19T07:13:15.759Z,459.84
2023-02-19T07:14:15.914Z,509.76
2023-02-19T07:15:16.083Z,509.76
2023-02-19T07:16:16.279Z,569.92
2023-02-19T07:17:16.558Z,569.92
2023-02-19T07:18:16.715Z,629.76
2023-02-19T07:19:16.878Z,699.52
2023-02-19T07:20:17.034Z,699.52
2023-02-19T07:21:17.184Z,699.52
2023-02-19T07:22:17.333Z,699.52
2023-02-19T07:23:17.478Z,769.92
2023-02-19T07:24:17.638Z,769.92
2023-02-19T07:25:17.825Z,769.92
2023-02-19T07:26:17.998Z,769.92
2023-02-19T07:27:18.156Z,769.92
2023-02-19T07:28:18.311Z,769.92
2023-02-19T07:29:18.468Z,769.92
2023-02-19T07:30:18.661Z,859.52
2023-02-19T07:31:19.146Z,859.52
2023-02-19T07:32:19.575Z,949.76
2023-02-19T07:33:19.736Z,1059.84
2023-02-19T07:34:19.899Z,1059.84
2023-02-19T07:35:20.062Z,1059.84
2023-02-19T07:36:20.207Z,1179.52
2023-02-19T07:37:20.371Z,1179.52
2023-02-19T07:38:20.526Z,1179.52
2023-02-19T07:39:20.727Z,1299.84
2023-02-19T07:40:20.895Z,1299.84
2023-02-19T07:41:21.057Z,1299.84
2023-02-19T07:42:21.360Z,1299.84
2023-02-19T07:43:21.513Z,1299.84
2023-02-19T07:44:21.706Z,1299.84
2023-02-19T07:45:21.865Z,1299.84
2023-02-19T07:46:22.088Z,1299.84
2023-02-19T07:47:22.258Z,1440
2023-02-19T07:48:22.420Z,1440
2023-02-19T07:49:22.581Z,1440
2023-02-19T07:50:22.739Z,1600
2023-02-19T07:51:22.901Z,1760
2023-02-19T07:52:23.058Z,1760
2023-02-19T07:53:23.234Z,1760
2023-02-19T07:54:23.387Z,1760
2023-02-19T07:55:23.582Z,1760
2023-02-19T07:56:23.740Z,1760
2023-02-19T07:57:23.915Z,1760
2023-02-19T07:58:24.060Z,1760
2023-02-19T07:59:24.220Z,1760
2023-02-19T08:00:24.426Z,1760
2023-02-19T08:01:24.652Z,1859.84
2023-02-19T08:02:24.927Z,1859.84
2023-02-19T08:03:25.080Z,1859.84
2023-02-19T08:04:25.316Z,1859.84
2023-02-19T08:05:25.466Z,2059.52
2023-02-19T08:06:25.611Z,2059.52
2023-02-19T08:07:25.764Z,2059.52
2023-02-19T08:08:25.911Z,2059.52
2023-02-19T08:09:26.060Z,2279.68
2023-02-19T08:10:26.223Z,2279.68
2023-02-19T08:11:26.539Z,2279.68
2023-02-19T08:12:26.716Z,2539.52
2023-02-19T08:13:26.871Z,2539.52
2023-02-19T08:14:27.107Z,2798.08
2023-02-19T08:15:27.288Z,3079.68
2023-02-19T08:16:41.028Z,3079.68
2023-02-19T08:17:43.699Z,3758.08
2023-02-19T08:18:43.865Z,4177.92
2023-02-19T08:19:44.010Z,5237.76
2023-02-19T08:20:44.161Z,5237.76
2023-02-19T08:21:44.333Z,6558.72
2023-02-19T08:22:44.509Z,7275.52
2023-02-19T08:23:44.655Z,10199.04
2023-02-19T08:24:44.800Z,11397.12
2023-02-19T08:25:44.957Z,12595.2
2023-02-19T08:26:45.173Z,12595.2
2023-02-19T08:27:45.529Z,11192.32
2023-02-19T08:28:45.717Z,9999.36
2023-02-19T08:29:45.865Z,10997.76
2023-02-19T08:30:46.141Z,10997.76
2023-02-19T08:31:46.873Z,10997.76
2023-02-19T08:32:47.424Z,10997.76
2023-02-19T08:33:47.576Z,14796.8
2023-02-19T08:34:47.732Z,14796.8
2023-02-19T08:35:47.900Z,18995.2
2023-02-19T08:36:48.064Z,16793.6
2023-02-19T08:37:48.232Z,12994.56
2023-02-19T08:38:48.400Z,12994.56
2023-02-19T08:39:48.565Z,11397.12
2023-02-19T08:40:48.734Z,10199.04
2023-02-19T08:41:48.877Z,10199.04
2023-02-19T08:42:49.046Z,13393.92
2023-02-19T08:43:49.220Z,11796.48
2023-02-19T08:44:49.381Z,9216
2023-02-19T08:45:49.556Z,13598.72
2023-02-19T08:46:49.831Z,15790.08
2023-02-19T08:47:49.983Z,19998.72
2023-02-19T08:48:50.151Z,22179.84
2023-02-19T08:49:50.301Z,24596.48
2023-02-19T08:50:50.477Z,24596.48
2023-02-19T08:51:50.635Z,24596.48
2023-02-19T08:52:50.793Z,27197.44
2023-02-19T08:53:50.941Z,27197.44
2023-02-19T08:54:51.112Z,27197.44
2023-02-19T08:55:51.640Z,27197.44
2023-02-19T08:56:51.806Z,21196.8
2023-02-19T08:57:51.991Z,16394.24
2023-02-19T08:58:52.145Z,12800
2023-02-19T08:59:52.337Z,11397.12
2023-02-19T09:00:52.504Z,9999.36
2023-02-19T09:01:52.662Z,8995.84
2023-02-19T09:02:52.814Z,8995.84
2023-02-19T09:03:52.999Z,8995.84
2023-02-19T09:04:53.243Z,8995.84
2023-02-19T09:05:53.382Z,8995.84
2023-02-19T09:06:53.540Z,8995.84
2023-02-19T09:07:53.688Z,8099.84
2023-02-19T09:08:53.836Z,8099.84
2023-02-19T09:09:54.002Z,8099.84
2023-02-19T09:10:54.154Z,7239.68
2023-02-19T09:11:54.304Z,7239.68
2023-02-19T09:12:54.452Z,7239.68
2023-02-19T09:13:54.604Z,8739.84
2023-02-19T09:14:54.759Z,8739.84
2023-02-19T09:15:54.936Z,8739.84
2023-02-19T09:16:55.188Z,9697.28
2023-02-19T09:17:55.350Z,9697.28
2023-02-19T09:18:55.514Z,9697.28
2023-02-19T09:19:55.670Z,8678.4
2023-02-19T09:20:55.824Z,9758.72
2023-02-19T09:21:55.980Z,9758.72
2023-02-19T09:22:56.131Z,8657.92
2023-02-19T09:23:56.546Z,6835.2
2023-02-19T09:24:56.700Z,6835.2
2023-02-19T09:25:56.856Z,6097.92
2023-02-19T09:26:57.005Z,6097.92
2023-02-19T09:27:57.157Z,6097.92
2023-02-19T09:28:57.320Z,6097.92
2023-02-19T09:29:57.471Z,7219.2
2023-02-19T09:30:57.656Z,9497.6
2023-02-19T09:31:58.097Z,9497.6
2023-02-19T09:32:58.469Z,8499.2
2023-02-19T09:33:58.717Z,7536.64
2023-02-19T09:34:58.868Z,14592
2023-02-19T09:35:59.012Z,12994.56
2023-02-19T09:36:59.162Z,11591.68
2023-02-19T09:37:59.309Z,10398.72
2023-02-19T09:38:59.456Z,11796.48
2023-02-19T09:39:59.603Z,15994.88
2023-02-19T09:40:59.757Z,18196.48
2023-02-19T09:41:59.931Z,17397.76
2023-02-19T09:43:01.626Z,17397.76
2023-02-19T09:44:02.113Z,19998.72
2023-02-19T09:45:02.287Z,17797.12
2023-02-19T09:46:02.464Z,14192.64
2023-02-19T09:47:02.767Z,12390.4
2023-02-19T09:48:02.945Z,10997.76
2023-02-19T09:49:03.113Z,10997.76
2023-02-19T09:50:03.269Z,9896.96
2023-02-19T09:51:03.420Z,9896.96
2023-02-19T09:52:03.575Z,9896.96
2023-02-19T09:53:03.726Z,9896.96
2023-02-19T09:54:03.891Z,8837.12
2023-02-19T09:55:04.050Z,8837.12
2023-02-19T09:56:04.220Z,8837.12
2023-02-19T09:57:04.372Z,8837.12
2023-02-19T09:58:05.210Z,8837.12
2023-02-19T09:59:05.355Z,8837.12
2023-02-19T10:00:05.512Z,7895.04
2023-02-19T10:01:05.686Z,7096.32
2023-02-19T10:02:06.394Z,7096.32
2023-02-19T10:03:06.567Z,7096.32
2023-02-19T10:04:06.759Z,7096.32
2023-02-19T10:05:06.980Z,7096.32
2023-02-19T10:06:08.799Z,6359.04
2023-02-19T10:07:11.654Z,6215.68
2023-02-19T10:08:11.811Z,6215.68
2023-02-19T10:09:11.971Z,6215.68
2023-02-19T10:10:12.131Z,7198.72
2023-02-19T10:11:12.614Z,7198.72
2023-02-19T10:12:13.726Z,9359.36
2023-02-19T10:13:13.881Z,8299.52
2023-02-19T10:14:14.041Z,7357.44
2023-02-19T10:15:14.217Z,6579.2
2023-02-19T10:16:14.388Z,6579.2
2023-02-19T10:17:14.709Z,6579.2
2023-02-19T10:18:14.868Z,6579.2
2023-02-19T10:19:15.055Z,6579.2
2023-02-19T10:20:15.247Z,6579.2
2023-02-19T10:21:15.417Z,6579.2
2023-02-19T10:22:15.567Z,6579.2
2023-02-19T10:23:15.709Z,6579.2
2023-02-19T10:24:15.865Z,13393.92
2023-02-19T10:25:16.021Z,13393.92
2023-02-19T10:26:16.179Z,11991.04
2023-02-19T10:27:16.489Z,16199.68
2023-02-19T10:28:16.642Z,21995.52
2023-02-19T10:29:16.831Z,19793.92
2023-02-19T10:30:17.004Z,21995.52
2023-02-19T10:31:19.492Z,19793.92
2023-02-19T10:32:21.515Z,35983.36
2023-02-19T10:33:21.808Z,35983.36
2023-02-19T10:34:21.971Z,40796.16
2023-02-19T10:35:22.261Z,45588.48
2023-02-19T10:36:22.421Z,45998.08
2023-02-19T10:37:22.570Z,35983.36
2023-02-19T10:38:22.715Z,35983.36
2023-02-19T10:39:22.913Z,37580.8
2023-02-19T10:40:23.106Z,41594.88
2023-02-19T10:41:23.264Z,45793.28
2023-02-19T10:42:23.421Z,57589.76
2023-02-19T10:43:23.563Z,57589.76
2023-02-19T10:44:23.728Z,57589.76
2023-02-19T10:45:23.873Z,64389.12
2023-02-19T10:46:24.200Z,56197.12
2023-02-19T10:47:24.637Z,56197.12
2023-02-19T10:48:24.794Z,43171.84
2023-02-19T10:49:24.973Z,43786.24
2023-02-19T10:50:25.131Z,50995.2
2023-02-19T10:51:25.291Z,43581.44
2023-02-19T10:52:25.451Z,38195.2
2023-02-19T10:53:25.617Z,34795.52
2023-02-19T10:54:25.781Z,37396.48
2023-02-19T10:55:25.935Z,32993.28
2023-02-19T10:56:26.091Z,37785.6
2023-02-19T10:57:26.233Z,28999.68
2023-02-19T10:58:26.376Z,25395.2
2023-02-19T10:59:26.545Z,20398.08
2023-02-19T11:00:26.742Z,17991.68
2023-02-19T11:01:27.149Z,14397.44
2023-02-19T11:02:27.471Z,14397.44
2023-02-19T11:03:27.628Z,12800
2023-02-19T11:04:27.896Z,11397.12
2023-02-19T11:05:28.456Z,10199.04
2023-02-19T11:06:28.619Z,9077.76
2023-02-19T11:07:28.769Z,7976.96
2023-02-19T11:08:28.935Z,7116.8
2023-02-19T11:09:29.087Z,7116.8
2023-02-19T11:10:29.256Z,6318.08
2023-02-19T11:11:29.425Z,6318.08
2023-02-19T11:12:29.567Z,6318.08
2023-02-19T11:13:29.820Z,6318.08
2023-02-19T11:14:29.976Z,5637.12
2023-02-19T11:15:30.126Z,5637.12
2023-02-19T11:16:30.296Z,5038.08
2023-02-19T11:17:30.618Z,5038.08
2023-02-19T11:18:30.820Z,5038.08
2023-02-19T11:19:30.968Z,5038.08
2023-02-19T11:20:31.113Z,5038.08
2023-02-19T11:21:31.259Z,5038.08
2023-02-19T11:22:31.426Z,5637.12
2023-02-19T11:23:31.600Z,6318.08
2023-02-19T11:24:31.775Z,6999.04
2023-02-19T11:25:31.928Z,7715.84
2023-02-19T11:26:32.089Z,7715.84
2023-02-19T11:27:32.277Z,7715.84
2023-02-19T11:28:32.447Z,9600
2023-02-19T11:29:32.635Z,9600
2023-02-19T11:30:35.741Z,9600
2023-02-19T11:31:36.929Z,10398.72
2023-02-19T11:32:37.376Z,10398.72
2023-02-19T11:33:37.537Z,10598.4
2023-02-19T11:34:37.707Z,10598.4
2023-02-19T11:35:37.940Z,11796.48
2023-02-19T11:36:38.088Z,11796.48
2023-02-19T11:37:38.261Z,10598.4
2023-02-19T11:38:38.423Z,10598.4
2023-02-19T11:39:38.600Z,15790.08
2023-02-19T11:40:38.741Z,25784.32
2023-02-19T11:41:38.944Z,37990.4
2023-02-19T11:42:39.093Z,33996.8
2023-02-19T11:43:39.236Z,38400
2023-02-19T11:44:39.380Z,38400
2023-02-19T11:45:39.548Z,38400
2023-02-19T11:46:39.722Z,39587.84
2023-02-19T11:47:40.018Z,31580.16
2023-02-19T11:48:40.192Z,28180.48
2023-02-19T11:49:40.363Z,22384.64
2023-02-19T11:50:40.518Z,19998.72
2023-02-19T11:51:40.668Z,17991.68
2023-02-19T11:52:40.823Z,16199.68
2023-02-19T11:53:41.000Z,14192.64
2023-02-19T11:54:41.163Z,10997.76
2023-02-19T11:55:41.317Z,9896.96
2023-02-19T11:56:41.470Z,7618.56
2023-02-19T11:57:41.679Z,6737.92
2023-02-19T11:58:41.836Z,6056.96
2023-02-19T11:59:42.008Z,5437.44
2023-02-19T12:00:42.153Z,5437.44
2023-02-19T12:01:42.338Z,5437.44
2023-02-19T12:02:42.565Z,5437.44
2023-02-19T12:03:42.720Z,5437.44
2023-02-19T12:04:42.866Z,4879.36
2023-02-19T12:05:43.020Z,4377.6
2023-02-19T12:06:43.290Z,4377.6
2023-02-19T12:07:43.433Z,4377.6
2023-02-19T12:08:43.600Z,3878.4
2023-02-19T12:09:43.749Z,3479.04
2023-02-19T12:10:43.895Z,3479.04
2023-02-19T12:11:44.048Z,3479.04
2023-02-19T12:12:44.208Z,3479.04
2023-02-19T12:13:44.366Z,3479.04
2023-02-19T12:14:44.517Z,3479.04
2023-02-19T12:15:44.665Z,3840
2023-02-19T12:16:44.877Z,4339.2
2023-02-19T12:17:45.208Z,4800
2023-02-19T12:18:45.375Z,5319.68
2023-02-19T12:19:45.534Z,5319.68
2023-02-19T12:20:45.717Z,5319.68
2023-02-19T12:21:45.888Z,5319.68
2023-02-19T12:22:46.034Z,5319.68
2023-02-19T12:23:46.185Z,5319.68
2023-02-19T12:24:46.329Z,5877.76
2023-02-19T12:25:46.487Z,5877.76
2023-02-19T12:26:46.646Z,5877.76
2023-02-19T12:27:46.798Z,5877.76
2023-02-19T12:28:46.968Z,5877.76
2023-02-19T12:29:47.115Z,5877.76
2023-02-19T12:30:47.306Z,6476.8
2023-02-19T12:31:47.645Z,6476.8
2023-02-19T12:32:47.931Z,6476.8
2023-02-19T12:33:48.078Z,6476.8
2023-02-19T12:34:48.225Z,6476.8
2023-02-19T12:35:48.377Z,6476.8
2023-02-19T12:36:50.608Z,6476.8
2023-02-19T12:37:51.113Z,6476.8
2023-02-19T12:38:51.264Z,6476.8
2023-02-19T12:39:51.422Z,6476.8
2023-02-19T12:40:51.574Z,5939.2
2023-02-19T12:41:51.722Z,5939.2
2023-02-19T12:42:51.892Z,5939.2
2023-02-19T12:43:52.053Z,5939.2
2023-02-19T12:44:52.201Z,5939.2
2023-02-19T12:45:52.454Z,5939.2
2023-02-19T12:46:52.877Z,6538.24
2023-02-19T12:47:53.064Z,6538.24
2023-02-19T12:48:53.215Z,6538.24
2023-02-19T12:49:53.391Z,6538.24
2023-02-19T12:50:53.549Z,6538.24
2023-02-19T12:51:53.726Z,6538.24
2023-02-19T12:52:53.882Z,6538.24
2023-02-19T12:53:54.043Z,6538.24
2023-02-19T12:54:55.773Z,6538.24
2023-02-19T12:55:56.271Z,6538.24
2023-02-19T12:56:56.421Z,6359.04
2023-02-19T12:57:56.619Z,6359.04
2023-02-19T12:58:56.793Z,6359.04
2023-02-19T12:59:56.953Z,6359.04
2023-02-19T13:00:57.146Z,6359.04
2023-02-19T13:01:57.399Z,6359.04
2023-02-19T13:02:57.824Z,6359.04
2023-02-19T13:03:57.983Z,6359.04
2023-02-19T13:04:58.139Z,6359.04
2023-02-19T13:05:58.313Z,6359.04
2023-02-19T13:06:58.456Z,6056.96
2023-02-19T13:07:58.622Z,6056.96
2023-02-19T13:09:06.185Z,6056.96
2023-02-19T13:10:07.617Z,5637.12
2023-02-19T13:11:07.809Z,5437.44
2023-02-19T13:12:08.064Z,5437.44
2023-02-19T13:13:08.222Z,5437.44
2023-02-19T13:14:08.383Z,5437.44
2023-02-19T13:15:08.543Z,5437.44
2023-02-19T13:16:08.939Z,5437.44
2023-02-19T13:17:10.563Z,5437.44
2023-02-19T13:18:10.718Z,5437.44
2023-02-19T13:19:10.894Z,5437.44
2023-02-19T13:20:11.052Z,5437.44
2023-02-19T13:21:11.405Z,5376
2023-02-19T13:22:12.510Z,5376
2023-02-19T13:23:12.658Z,5376
2023-02-19T13:24:12.813Z,5376
2023-02-19T13:25:12.982Z,5376